Time;durP1;ratioP1;P1;durP2;ratioP2;P2;SDS_P1;SDS_P2;PMS_P1;PMS_P2;Temp;Humidity;BMP_temperature;BMP_pressure;BME280_temperature;BME280_humidity;BME280_pressure;Samples;Min_cycle;Max_cycle;Signal;HPM_P1;HPM_P2
2023/12/13 00:00:00;;;;;;;1.00;0.85;;;7.20;99.90;;;;;;5052436;28;20578;-73
2023/12/13 00:02:27;;;;;;;0.80;0.80;;;7.20;99.90;;;;;;5053046;28;20208;-72
2023/12/13 00:04:53;;;;;;;0.95;0.80;;;7.20;99.90;;;;;;5052688;28;20625;-72
2023/12/13 00:07:20;;;;;;;1.52;1.17;;;7.20;99.90;;;;;;5048579;28;20244;-72
2023/12/13 00:09:47;;;;;;;0.80;0.80;;;7.30;99.90;;;;;;5052298;28;20197;-72
2023/12/13 00:12:14;;;;;;;1.08;0.90;;;7.30;99.90;;;;;;5052709;28;20243;-72
2023/12/13 00:14:42;;;;;;;0.90;0.70;;;7.30;99.90;;;;;;5052397;28;20255;-72
2023/12/13 04:31:06;;;;;;;0.90;0.80;;;4.90;99.90;;;;;;5856199;23;20751;-70
2023/12/13 04:33:33;;;;;;;0.80;0.80;;;4.80;99.90;;;;;;4989862;28;20350;-69
2023/12/13 04:36:00;;;;;;;0.80;0.80;;;4.90;99.90;;;;;;4991781;28;20312;-69
2023/12/13 04:38:27;;;;;;;1.15;1.00;;;4.80;99.90;;;;;;4991378;28;20210;-69
2023/12/13 04:40:54;;;;;;;0.90;0.80;;;4.80;99.90;;;;;;4991890;28;20592;-69
2023/12/13 04:43:20;;;;;;;0.70;0.70;;;4.90;99.90;;;;;;4992608;28;20215;-69
2023/12/13 04:45:47;;;;;;;0.80;0.80;;;4.90;99.90;;;;;;4992310;28;20203;-68
2023/12/13 04:48:15;;;;;;;0.80;0.70;;;4.90;99.90;;;;;;4992084;28;20224;-67
2023/12/13 04:50:42;;;;;;;0.70;0.60;;;5.00;99.90;;;;;;4992178;28;20217;-68
2023/12/13 04:53:08;;;;;;;1.65;1.00;;;5.00;99.90;;;;;;4992353;28;20213;-68
2023/12/13 04:55:35;;;;;;;0.80;0.80;;;5.00;99.90;;;;;;4992273;28;20582;-67
2023/12/13 04:58:02;;;;;;;1.50;0.98;;;5.00;99.90;;;;;;4991680;28;20215;-68
2023/12/13 05:00:28;;;;;;;1.38;1.02;;;5.00;99.90;;;;;;4991397;28;20226;-67
2023/12/13 05:02:55;;;;;;;1.48;0.98;;;5.10;99.90;;;;;;4990749;28;20219;-68
2023/12/13 05:05:23;;;;;;;1.00;0.80;;;5.10;99.90;;;;;;4991123;28;20292;-68
2023/12/13 05:07:50;;;;;;;1.00;0.88;;;5.10;99.90;;;;;;4991395;28;20663;-68
2023/12/13 05:10:17;;;;;;;1.92;1.35;;;5.10;99.90;;;;;;4991573;28;20206;-68
2023/12/13 05:12:43;;;;;;;1.40;1.08;;;5.10;99.90;;;;;;4992352;28;20207;-68
2023/12/13 05:15:10;;;;;;;0.90;0.80;;;5.10;99.90;;;;;;4992534;28;20217;-70
2023/12/13 05:17:37;;;;;;;2.78;1.10;;;5.20;99.90;;;;;;4988858;28;20465;-68
2023/12/13 05:20:05;;;;;;;1.10;0.95;;;5.20;99.90;;;;;;4990600;28;20253;-67
2023/12/13 05:22:33;;;;;;;0.80;0.70;;;5.30;99.90;;;;;;4991655;28;20229;-67
2023/12/13 05:24:59;;;;;;;2.20;1.15;;;5.40;99.90;;;;;;4989396;28;20695;-68
2023/12/13 05:27:26;;;;;;;0.93;0.82;;;5.50;99.90;;;;;;4992146;28;20712;-67
2023/12/13 05:29:53;;;;;;;0.80;0.77;;;5.50;99.90;;;;;;4992708;28;20206;-68
2023/12/13 05:32:20;;;;;;;0.90;0.80;;;5.60;99.90;;;;;;4984252;28;20234;-68
2023/12/13 05:34:46;;;;;;;0.80;0.80;;;5.70;99.90;;;;;;4991153;28;20202;-67
2023/12/13 05:37:13;;;;;;;1.10;1.00;;;5.80;99.90;;;;;;4990363;28;20226;-68
2023/12/13 05:39:42;;;;;;;2.67;0.80;;;5.80;99.90;;;;;;4991475;28;20219;-67
2023/12/13 05:42:09;;;;;;;0.70;0.70;;;5.90;99.90;;;;;;4991777;28;20222;-67
2023/12/13 05:44:35;;;;;;;0.80;0.70;;;5.90;99.90;;;;;;4991103;28;20214;-68
2023/12/13 05:47:02;;;;;;;0.80;0.70;;;6.00;99.90;;;;;;4991048;28;20199;-67
2023/12/13 05:49:28;;;;;;;0.80;0.80;;;6.00;99.90;;;;;;4991352;28;20671;-67
2023/12/13 05:51:55;;;;;;;0.80;0.70;;;6.10;99.90;;;;;;4991413;28;20227;-66
2023/12/13 05:54:22;;;;;;;1.30;0.90;;;6.10;99.90;;;;;;4991851;28;20207;-69
2023/12/13 05:56:50;;;;;;;0.80;0.70;;;6.10;99.90;;;;;;4991718;28;20213;-70
2023/12/13 05:59:17;;;;;;;1.00;0.80;;;6.10;99.90;;;;;;4991127;28;20600;-68
2023/12/13 06:01:43;;;;;;;0.95;0.75;;;6.20;99.90;;;;;;4991541;28;20223;-68
2023/12/13 06:04:10;;;;;;;0.90;0.80;;;6.20;99.90;;;;;;4991696;28;20199;-67
2023/12/13 06:06:37;;;;;;;0.70;0.70;;;6.20;99.90;;;;;;4991492;28;20203;-69
2023/12/13 06:09:04;;;;;;;4.35;0.95;;;6.20;99.90;;;;;;4991033;28;20207;-69
2023/12/13 06:11:32;;;;;;;1.00;0.90;;;6.20;99.90;;;;;;4991615;28;20231;-67
2023/12/13 06:14:00;;;;;;;1.30;0.95;;;6.20;99.90;;;;;;4991169;28;20206;-68
2023/12/13 06:16:26;;;;;;;1.00;0.80;;;6.30;99.90;;;;;;4991379;28;20217;-67
2023/12/13 06:18:53;;;;;;;1.55;0.90;;;6.30;99.90;;;;;;4991095;28;20207;-67
2023/12/13 06:21:20;;;;;;;1.80;0.82;;;6.30;99.90;;;;;;4990778;28;20682;-67
2023/12/13 06:23:47;;;;;;;1.08;0.90;;;6.30;99.90;;;;;;4991343;28;20207;-66
2023/12/13 06:26:13;;;;;;;1.05;0.80;;;6.40;99.90;;;;;;4991068;28;20210;-68
2023/12/13 06:28:40;;;;;;;0.70;0.60;;;6.40;99.90;;;;;;4990908;28;20669;-67
2023/12/13 06:31:08;;;;;;;1.17;1.08;;;6.50;99.90;;;;;;4991488;28;20225;-68
2023/12/13 06:33:35;;;;;;;1.70;0.98;;;6.50;99.90;;;;;;4995552;28;20199;-68
2023/12/13 06:36:02;;;;;;;1.25;0.80;;;6.50;99.90;;;;;;4994863;28;20210;-67
2023/12/13 06:38:28;;;;;;;2.38;1.02;;;6.60;99.90;;;;;;4995108;28;20226;-68
2023/12/13 06:40:55;;;;;;;1.10;0.90;;;6.70;99.90;;;;;;4994994;28;20325;-69
2023/12/13 06:43:22;;;;;;;2.10;1.27;;;6.70;99.90;;;;;;4995120;28;20211;-69
2023/12/13 06:45:49;;;;;;;0.90;0.80;;;6.70;99.90;;;;;;4995021;28;20203;-68
2023/12/13 06:48:17;;;;;;;1.20;1.00;;;6.70;99.90;;;;;;4994745;28;20857;-69
2023/12/13 06:50:43;;;;;;;0.90;0.77;;;6.60;99.90;;;;;;4994955;28;20226;-68
2023/12/13 06:53:10;;;;;;;1.00;0.90;;;6.70;99.90;;;;;;4994991;28;20303;-68
2023/12/13 06:55:37;;;;;;;0.70;0.70;;;6.70;99.90;;;;;;4995108;28;20265;-68
2023/12/13 06:58:04;;;;;;;1.52;0.88;;;6.70;99.90;;;;;;4994192;28;20241;-68
2023/12/13 07:00:30;;;;;;;1.17;1.08;;;6.70;99.90;;;;;;4994890;28;20215;-68
2023/12/13 07:02:57;;;;;;;0.80;0.70;;;6.70;99.90;;;;;;4994787;28;20203;-68
2023/12/13 07:05:25;;;;;;;1.00;0.90;;;6.70;99.90;;;;;;4994748;28;20699;-68
2023/12/13 07:07:52;;;;;;;1.10;1.00;;;6.70;99.90;;;;;;4994417;28;20211;-68
2023/12/13 07:10:21;;;;;;;0.90;0.70;;;6.70;99.90;;;;;;4994155;28;20298;-68
2023/12/13 07:12:48;;;;;;;3.92;0.93;;;6.70;99.90;;;;;;4994558;28;20207;-68
2023/12/13 07:15:15;;;;;;;0.80;0.70;;;6.70;99.90;;;;;;4994586;28;20220;-68
2023/12/13 07:17:42;;;;;;;1.00;0.85;;;6.60;99.90;;;;;;4994328;28;20225;-67
2023/12/13 07:20:11;;;;;;;1.00;0.93;;;6.70;99.90;;;;;;4994060;28;20231;-68
2023/12/13 07:22:40;;;;;;;1.10;1.00;;;6.70;99.90;;;;;;4994421;28;20206;-67
2023/12/13 07:25:07;;;;;;;0.93;0.80;;;6.70;99.90;;;;;;4994178;28;20739;-67
2023/12/13 07:27:34;;;;;;;1.73;1.27;;;6.70;99.90;;;;;;4994105;28;20211;-67
2023/12/13 07:30:01;;;;;;;2.05;1.20;;;6.70;99.90;;;;;;4993941;28;20195;-68
2023/12/13 07:32:28;;;;;;;5.72;1.73;;;6.70;99.90;;;;;;4993938;28;20242;-68
2023/12/13 07:34:54;;;;;;;1.00;0.90;;;6.70;99.90;;;;;;4994027;28;20214;-67
2023/12/13 07:37:21;;;;;;;1.45;1.08;;;6.70;99.90;;;;;;4993729;28;20668;-67
2023/12/13 07:39:49;;;;;;;1.40;1.15;;;6.70;99.90;;;;;;4993616;28;20234;-68
2023/12/13 07:42:16;;;;;;;1.80;1.00;;;6.80;99.90;;;;;;4994044;28;20227;-68
2023/12/13 07:44:45;;;;;;;1.17;0.93;;;6.80;99.90;;;;;;4993368;28;20242;-67
2023/12/13 07:47:12;;;;;;;2.65;1.30;;;6.70;99.90;;;;;;4993678;28;20207;-68
2023/12/13 07:49:39;;;;;;;1.08;0.98;;;6.80;99.90;;;;;;4993551;28;20199;-68
2023/12/13 07:52:06;;;;;;;1.08;0.98;;;6.70;99.90;;;;;;4993788;28;20223;-68
2023/12/13 07:54:33;;;;;;;0.80;0.80;;;6.80;99.90;;;;;;4994122;28;20282;-69
2023/12/13 07:57:01;;;;;;;1.75;0.80;;;6.70;99.90;;;;;;4993586;28;20203;-68
2023/12/13 07:59:28;;;;;;;1.42;1.25;;;6.80;99.90;;;;;;4993332;28;20218;-67
2023/12/13 08:01:54;;;;;;;1.65;0.98;;;6.80;99.90;;;;;;4993602;28;20220;-68
2023/12/13 08:04:21;;;;;;;0.90;0.73;;;6.80;99.90;;;;;;4993694;28;20207;-68
2023/12/13 08:06:48;;;;;;;1.77;0.88;;;6.80;99.90;;;;;;4993443;28;20207;-69
2023/12/13 08:09:15;;;;;;;1.40;1.08;;;6.80;99.90;;;;;;4993022;28;20222;-71
2023/12/13 08:11:43;;;;;;;0.80;0.80;;;6.80;99.90;;;;;;4993735;28;20219;-69
2023/12/13 08:14:11;;;;;;;0.90;0.70;;;6.90;99.90;;;;;;4993532;28;20212;-69
2023/12/13 08:16:38;;;;;;;1.48;0.90;;;6.80;99.90;;;;;;4993521;28;20203;-69
2023/12/13 08:19:04;;;;;;;1.10;0.77;;;6.90;99.90;;;;;;4993259;28;20290;-69
2023/12/13 08:21:32;;;;;;;1.67;1.05;;;6.90;99.90;;;;;;4992942;28;20234;-68
2023/12/13 08:23:59;;;;;;;0.95;0.80;;;6.90;99.90;;;;;;4993201;28;20209;-70
2023/12/13 08:26:26;;;;;;;1.38;0.80;;;6.90;99.90;;;;;;4993057;28;20211;-68
2023/12/13 08:28:53;;;;;;;1.33;0.90;;;6.90;99.90;;;;;;4992872;28;20282;-69
2023/12/13 08:31:21;;;;;;;1.15;1.05;;;6.90;99.90;;;;;;4993056;28;20231;-70
2023/12/13 08:33:48;;;;;;;1.20;1.10;;;6.90;99.90;;;;;;4993231;28;20215;-69
2023/12/13 08:36:15;;;;;;;1.23;1.05;;;6.90;99.90;;;;;;4992886;28;20210;-70
2023/12/13 08:38:42;;;;;;;1.05;0.80;;;6.90;99.90;;;;;;4992797;28;20564;-70
2023/12/13 08:41:09;;;;;;;1.00;0.90;;;6.90;99.90;;;;;;4993000;28;20223;-70
2023/12/13 08:43:36;;;;;;;3.28;1.35;;;7.00;99.90;;;;;;4987518;28;20203;-71
2023/12/13 08:46:03;;;;;;;1.10;1.00;;;7.00;99.90;;;;;;4991548;28;20207;-71
2023/12/13 08:48:31;;;;;;;1.10;1.00;;;7.00;99.90;;;;;;4992486;28;20270;-71
2023/12/13 08:50:58;;;;;;;1.30;1.00;;;7.00;99.90;;;;;;4992293;28;20628;-69
2023/12/13 08:53:25;;;;;;;1.55;1.00;;;7.10;99.90;;;;;;4992724;28;20207;-70
2023/12/13 08:55:52;;;;;;;1.20;1.10;;;7.10;99.90;;;;;;4991482;28;20211;-70
2023/12/13 08:58:18;;;;;;;3.08;1.00;;;7.20;99.90;;;;;;4991616;28;20207;-70
2023/12/13 09:00:45;;;;;;;1.77;0.90;;;7.30;99.90;;;;;;4992267;28;20600;-71
2023/12/13 09:03:12;;;;;;;1.15;1.05;;;7.40;99.90;;;;;;4992507;28;20217;-68
2023/12/13 09:05:40;;;;;;;2.00;1.80;;;7.50;99.90;;;;;;4991758;28;20203;-69
2023/12/13 09:08:06;;;;;;;1.65;1.30;;;7.50;99.90;;;;;;4991818;28;20211;-71
2023/12/13 09:10:34;;;;;;;1.08;0.98;;;7.60;99.90;;;;;;4992058;28;20223;-69
2023/12/13 09:13:02;;;;;;;1.00;0.80;;;7.60;99.90;;;;;;4991930;28;20203;-69
2023/12/13 09:15:29;;;;;;;1.20;1.00;;;7.70;99.90;;;;;;4992127;28;20289;-70
2023/12/13 09:17:56;;;;;;;1.42;1.17;;;7.80;99.90;;;;;;4991508;28;20215;-69
2023/12/13 09:20:23;;;;;;;1.63;0.90;;;7.80;99.90;;;;;;4991630;28;20700;-70
2023/12/13 09:22:51;;;;;;;1.08;0.98;;;7.80;99.90;;;;;;4992012;28;20211;-70
2023/12/13 09:25:17;;;;;;;1.10;0.82;;;7.80;99.90;;;;;;4990087;28;20213;-71
2023/12/13 09:27:46;;;;;;;1.70;1.10;;;7.80;99.90;;;;;;4991402;28;20215;-69
2023/12/13 09:30:13;;;;;;;1.15;0.98;;;7.90;99.90;;;;;;4991901;28;20212;-71
2023/12/13 09:32:40;;;;;;;1.33;0.88;;;8.00;99.90;;;;;;4991634;28;20222;-72
2023/12/13 09:35:07;;;;;;;2.88;1.25;;;8.10;99.90;;;;;;4991170;28;20215;-71
2023/12/13 09:37:34;;;;;;;2.55;1.42;;;8.20;99.90;;;;;;4991545;28;20207;-72
2023/12/13 09:40:02;;;;;;;1.55;1.00;;;8.20;99.90;;;;;;4991749;28;20852;-71
2023/12/13 09:42:30;;;;;;;1.98;1.40;;;8.20;99.90;;;;;;4991635;28;20315;-71
2023/12/13 09:44:57;;;;;;;1.00;0.90;;;8.20;99.90;;;;;;4991558;28;20214;-67
2023/12/13 09:47:27;;;;;;;1.10;0.85;;;8.30;99.90;;;;;;4991467;28;20211;-69
2023/12/13 09:49:54;;;;;;;4.10;1.27;;;8.30;99.90;;;;;;4990969;28;20207;-70
2023/12/13 09:52:21;;;;;;;2.47;1.00;;;8.40;99.90;;;;;;4988120;28;20603;-70
2023/12/13 09:54:51;;;;;;;1.88;1.00;;;8.50;99.90;;;;;;4991659;28;20559;-70
2023/12/13 09:57:19;;;;;;;1.73;1.02;;;8.70;99.90;;;;;;4991176;28;20579;-69
2023/12/13 09:59:46;;;;;;;1.98;1.20;;;8.70;99.90;;;;;;4991073;28;20203;-69
2023/12/13 10:02:16;;;;;;;1.10;1.00;;;8.50;99.90;;;;;;4991486;28;20481;-69
2023/12/13 10:04:45;;;;;;;2.30;1.40;;;8.50;99.90;;;;;;4991048;28;20213;-70
2023/12/13 10:07:12;;;;;;;1.42;1.10;;;8.30;99.90;;;;;;4991164;28;20211;-71
2023/12/13 10:09:39;;;;;;;1.42;1.17;;;8.30;99.90;;;;;;4989514;28;20215;-70
2023/12/13 10:12:07;;;;;;;1.80;1.42;;;8.20;99.90;;;;;;4990885;28;20235;-69
2023/12/13 10:14:36;;;;;;;1.92;1.63;;;8.10;99.90;;;;;;4991175;28;20668;-70
2023/12/13 10:17:05;;;;;;;1.20;1.10;;;8.10;99.90;;;;;;4990510;28;20258;-69
2023/12/13 10:19:32;;;;;;;1.08;0.98;;;8.10;99.90;;;;;;4990722;28;20214;-70
2023/12/13 10:21:59;;;;;;;2.88;1.20;;;8.00;99.90;;;;;;4990988;28;20707;-70
2023/12/13 10:24:27;;;;;;;1.55;1.00;;;8.00;99.90;;;;;;4991014;28;20203;-70
2023/12/13 10:26:54;;;;;;;1.85;1.33;;;8.00;99.90;;;;;;4990635;28;20270;-71
2023/12/13 10:29:21;;;;;;;1.15;1.05;;;7.90;99.90;;;;;;4987506;28;20610;-70
2023/12/13 10:31:49;;;;;;;1.77;1.20;;;7.90;99.90;;;;;;4990817;28;20667;-70
2023/12/13 10:34:16;;;;;;;1.20;1.10;;;8.00;99.90;;;;;;4991025;28;20211;-70
2023/12/13 10:36:43;;;;;;;1.10;1.00;;;8.10;99.90;;;;;;4988757;28;20208;-70
2023/12/13 10:39:14;;;;;;;1.55;1.25;;;8.50;99.90;;;;;;4990934;28;20641;-69
2023/12/13 10:41:44;;;;;;;3.20;1.10;;;9.00;99.90;;;;;;4990304;28;20755;-69
2023/12/13 10:44:15;;;;;;;1.20;1.10;;;9.50;99.90;;;;;;4989357;28;20212;-71
2023/12/13 10:46:46;;;;;;;2.97;1.15;;;9.90;99.90;;;;;;4990714;28;20212;-70
2023/12/13 10:49:17;;;;;;;1.38;1.27;;;10.80;99.90;;;;;;4990694;28;20208;-71
2023/12/13 10:51:45;;;;;;;1.55;1.23;;;13.20;99.90;;;;;;4988089;28;20235;-71
2023/12/13 10:54:13;;;;;;;1.17;1.08;;;16.30;99.90;;;;;;4991264;28;20203;-70
2023/12/13 10:56:40;;;;;;;1.33;1.23;;;18.10;99.90;;;;;;4990931;28;20293;-71
2023/12/13 10:59:09;;;;;;;1.00;0.90;;;18.80;99.90;;;;;;4988849;28;20480;-72
2023/12/13 11:01:39;;;;;;;1.23;0.97;;;19.30;99.90;;;;;;4989713;28;20896;-73
2023/12/13 11:04:08;;;;;;;1.13;0.90;;;18.90;99.90;;;;;;4991091;28;20497;-70
2023/12/13 11:06:37;;;;;;;1.40;1.20;;;19.10;99.90;;;;;;4990515;28;20474;-70
2023/12/13 11:09:13;;;;;;;1.30;1.00;;;18.40;99.90;;;;;;4990924;28;20897;-70
2023/12/13 11:11:41;;;;;;;0.93;0.83;;;18.30;99.90;;;;;;4990445;28;20482;-69
2023/12/13 11:14:09;;;;;;;1.70;1.10;;;18.30;99.90;;;;;;4991101;28;20470;-70
2023/12/13 11:16:39;;;;;;;1.50;1.00;;;19.10;99.90;;;;;;4990437;28;20470;-68
2023/12/13 11:19:06;;;;;;;2.87;1.00;;;19.90;99.90;;;;;;4992489;28;20543;-69
2023/12/13 11:21:34;;;;;;;1.53;1.07;;;19.00;99.90;;;;;;4994547;28;20520;-69
2023/12/13 11:24:12;;;;;;;1.87;0.90;;;18.10;99.90;;;;;;4994616;28;20470;-70
2023/12/13 11:26:42;;;;;;;1.47;1.00;;;16.80;99.90;;;;;;4994382;28;20466;-69
2023/12/13 11:29:20;;;;;;;1.53;1.13;;;15.60;99.90;;;;;;4994275;28;20958;-69
2023/12/13 11:31:52;;;;;;;1.53;1.00;;;15.20;99.90;;;;;;4993887;28;21023;-69
2023/12/13 11:34:19;;;;;;;2.58;1.27;;;15.30;99.90;;;;;;4994470;28;20890;-69
2023/12/13 11:36:46;;;;;;;1.83;1.30;;;15.80;99.90;;;;;;4993698;28;20592;-68
2023/12/13 11:39:14;;;;;;;1.02;0.90;;;16.10;99.90;;;;;;4993927;28;20472;-70
2023/12/13 11:41:42;;;;;;;1.30;0.90;;;16.30;99.90;;;;;;4993569;28;20238;-68
2023/12/13 11:44:11;;;;;;;4.17;1.33;;;16.40;99.90;;;;;;4994125;28;20214;-69
2023/12/13 11:46:37;;;;;;;4.33;1.10;;;16.30;99.90;;;;;;4993420;28;20492;-69
2023/12/13 11:49:04;;;;;;;1.13;1.03;;;16.10;99.90;;;;;;4995121;28;20464;-69
2023/12/13 11:51:31;;;;;;;1.20;1.10;;;15.60;99.90;;;;;;4994446;28;20484;-69
2023/12/13 11:53:57;;;;;;;1.60;0.90;;;15.10;99.90;;;;;;4993762;28;20459;-69
2023/12/13 11:56:25;;;;;;;1.15;0.85;;;14.50;99.90;;;;;;4993587;28;20464;-69
2023/12/13 11:58:52;;;;;;;1.20;1.00;;;13.70;99.90;;;;;;4993476;28;20235;-69
2023/12/13 12:01:19;;;;;;;0.90;0.80;;;13.10;99.90;;;;;;4993387;28;20322;-69
2023/12/13 12:03:46;;;;;;;1.10;0.98;;;12.60;99.90;;;;;;4993201;28;20662;-69
2023/12/13 12:06:15;;;;;;;1.50;0.90;;;12.10;99.90;;;;;;4993450;28;20710;-68
2023/12/13 12:08:42;;;;;;;4.40;1.17;;;11.80;99.90;;;;;;4993283;28;20207;-67
2023/12/13 12:11:08;;;;;;;1.40;0.90;;;11.70;99.90;;;;;;4993947;28;20230;-68
2023/12/13 12:13:36;;;;;;;1.95;1.10;;;12.00;99.90;;;;;;4993300;28;20290;-68
2023/12/13 12:16:04;;;;;;;1.23;1.13;;;12.20;99.90;;;;;;4993310;28;20207;-69
2023/12/13 12:18:30;;;;;;;1.13;1.00;;;12.50;99.90;;;;;;4992824;28;20207;-68
2023/12/13 12:20:57;;;;;;;1.40;1.10;;;12.60;99.90;;;;;;4992512;28;20726;-71
2023/12/13 12:23:25;;;;;;;1.27;1.00;;;12.40;99.90;;;;;;4993441;28;20664;-68
2023/12/13 12:25:53;;;;;;;1.50;1.10;;;12.30;99.90;;;;;;4993017;28;20298;-68
2023/12/13 12:28:20;;;;;;;1.55;1.25;;;12.10;99.90;;;;;;4995060;28;20745;-69
2023/12/13 12:30:48;;;;;;;1.10;1.00;;;11.70;99.90;;;;;;4993405;28;20228;-69
2023/12/13 12:33:14;;;;;;;1.35;1.20;;;11.30;99.90;;;;;;4994785;28;20817;-69
2023/12/13 12:35:41;;;;;;;1.58;1.20;;;11.10;99.90;;;;;;4993794;28;20225;-69
2023/12/13 12:38:08;;;;;;;0.90;0.77;;;11.00;99.90;;;;;;4992619;28;20214;-69
2023/12/13 12:40:34;;;;;;;1.10;0.80;;;10.90;99.90;;;;;;4993195;28;20639;-69
2023/12/13 12:43:01;;;;;;;1.70;0.95;;;11.00;99.90;;;;;;4993647;28;20227;-69
2023/12/13 12:45:28;;;;;;;2.30;0.93;;;11.20;99.90;;;;;;4993187;28;20207;-69
2023/12/13 12:47:57;;;;;;;1.35;0.95;;;11.40;99.90;;;;;;4992447;28;20214;-68
2023/12/13 12:50:23;;;;;;;1.63;0.98;;;11.50;99.90;;;;;;4992901;28;20234;-68
2023/12/13 12:52:50;;;;;;;3.70;1.85;;;11.50;99.90;;;;;;4989217;28;20583;-68
2023/12/13 12:55:17;;;;;;;3.38;1.92;;;11.30;99.90;;;;;;4992558;28;20297;-68
2023/12/13 12:57:45;;;;;;;0.90;0.77;;;11.30;99.90;;;;;;4980222;28;20214;-68
2023/12/13 13:00:13;;;;;;;1.10;1.00;;;11.20;99.90;;;;;;4983648;28;20238;-69
2023/12/13 13:02:40;;;;;;;1.00;0.80;;;10.90;99.90;;;;;;4989949;28;20223;-69
2023/12/13 13:05:08;;;;;;;1.20;1.08;;;10.50;99.90;;;;;;4992460;28;20666;-70
2023/12/13 13:07:35;;;;;;;3.08;0.90;;;10.20;99.90;;;;;;4992342;28;20206;-68
2023/12/13 13:10:01;;;;;;;1.33;0.98;;;9.90;99.90;;;;;;4991478;28;20206;-69
2023/12/13 13:12:30;;;;;;;2.13;1.15;;;9.80;99.90;;;;;;4992287;28;20266;-70
2023/12/13 13:14:57;;;;;;;1.08;0.88;;;9.70;99.90;;;;;;4991774;28;20297;-70
2023/12/13 13:17:24;;;;;;;1.10;0.80;;;9.70;99.90;;;;;;4992251;28;20214;-70
2023/12/13 13:19:52;;;;;;;0.70;0.70;;;9.60;99.90;;;;;;4991523;28;20210;-69
2023/12/13 13:22:20;;;;;;;1.05;0.90;;;9.60;99.90;;;;;;4992160;28;20236;-71
2023/12/13 13:24:47;;;;;;;0.80;0.70;;;9.70;99.90;;;;;;4991959;28;20209;-70
2023/12/13 13:27:13;;;;;;;1.13;0.80;;;9.60;99.90;;;;;;4991741;28;20216;-69
2023/12/13 13:29:40;;;;;;;1.00;0.80;;;9.60;99.90;;;;;;4991655;28;20217;-69
2023/12/13 13:32:08;;;;;;;1.17;0.93;;;9.60;99.90;;;;;;4989720;28;20233;-68
2023/12/13 13:34:35;;;;;;;1.05;0.95;;;9.60;99.90;;;;;;4991997;28;20205;-67
2023/12/13 13:37:02;;;;;;;2.30;1.20;;;9.50;99.90;;;;;;4991098;28;20217;-68
2023/12/13 13:39:31;;;;;;;1.10;1.00;;;9.40;99.90;;;;;;4992194;28;20214;-67
2023/12/13 13:41:58;;;;;;;1.17;0.80;;;9.40;99.90;;;;;;4989809;28;20649;-68
2023/12/13 13:44:25;;;;;;;1.00;0.77;;;9.40;99.90;;;;;;4991564;28;20878;-68
2023/12/13 13:46:52;;;;;;;0.90;0.70;;;9.40;99.90;;;;;;4990361;28;20299;-67
2023/12/13 13:49:18;;;;;;;0.95;0.82;;;9.40;99.90;;;;;;4991169;28;20665;-71
2023/12/13 13:51:46;;;;;;;0.80;0.70;;;9.40;99.90;;;;;;4991181;28;20601;-71
2023/12/13 13:54:11;;;;;;;1.30;0.95;;;9.40;99.90;;;;;;4992108;28;20746;-68
2023/12/13 13:56:39;;;;;;;0.80;0.73;;;9.30;99.90;;;;;;4991654;28;20209;-68
2023/12/13 13:59:07;;;;;;;2.35;1.15;;;9.10;99.90;;;;;;4991175;28;20213;-69
2023/12/13 14:01:34;;;;;;;0.93;0.90;;;8.90;99.90;;;;;;4991702;28;20288;-68
2023/12/13 14:04:01;;;;;;;1.10;0.70;;;8.80;99.90;;;;;;4991622;28;20211;-69
2023/12/13 14:06:28;;;;;;;1.60;1.00;;;8.60;99.90;;;;;;4991654;28;20203;-69
2023/12/13 14:08:56;;;;;;;0.80;0.70;;;8.40;99.90;;;;;;4990631;28;20207;-71
2023/12/13 14:11:22;;;;;;;0.95;0.85;;;8.40;99.90;;;;;;4991483;28;20249;-71
2023/12/13 14:13:51;;;;;;;1.80;0.80;;;8.30;99.90;;;;;;4991062;28;20226;-70
2023/12/13 14:16:17;;;;;;;1.10;1.00;;;8.20;99.90;;;;;;4988515;28;20646;-71
2023/12/13 14:18:44;;;;;;;1.00;0.85;;;8.10;99.90;;;;;;4988284;28;20207;-70
2023/12/13 14:21:11;;;;;;;1.98;1.05;;;8.10;99.90;;;;;;4987817;28;20230;-71
2023/12/13 14:23:38;;;;;;;2.65;1.40;;;8.00;99.90;;;;;;4988747;28;20231;-70
2023/12/13 14:26:05;;;;;;;1.95;1.75;;;7.90;99.90;;;;;;4986816;28;20210;-72
2023/12/13 14:28:32;;;;;;;1.45;1.15;;;7.90;99.90;;;;;;4989858;28;20238;-72
2023/12/13 14:31:00;;;;;;;1.13;0.90;;;7.80;99.90;;;;;;4987881;28;20617;-72
2023/12/13 14:33:28;;;;;;;0.98;0.73;;;7.80;99.90;;;;;;4988028;28;20267;-72
2023/12/13 14:35:56;;;;;;;1.80;1.20;;;7.70;99.90;;;;;;4987721;28;20209;-71
2023/12/13 14:38:23;;;;;;;1.90;1.13;;;7.70;99.90;;;;;;4987040;28;20836;-71
2023/12/13 14:40:50;;;;;;;1.02;0.95;;;7.70;99.90;;;;;;4987151;28;20689;-73
2023/12/13 14:43:18;;;;;;;1.10;0.90;;;7.60;99.90;;;;;;4988226;28;20231;-70
2023/12/13 14:45:46;;;;;;;0.90;0.80;;;7.60;99.90;;;;;;4987767;28;20241;-71
2023/12/13 14:48:15;;;;;;;0.80;0.80;;;7.50;99.90;;;;;;4986715;28;20297;-71
2023/12/13 14:50:43;;;;;;;1.00;0.90;;;7.50;99.90;;;;;;4987679;28;20290;-70
2023/12/13 14:53:11;;;;;;;0.88;0.70;;;7.50;99.90;;;;;;4994823;28;20285;-70
2023/12/13 14:55:38;;;;;;;0.80;0.80;;;7.50;99.90;;;;;;5000314;28;20207;-69
2023/12/13 14:58:04;;;;;;;0.90;0.80;;;7.50;99.90;;;;;;4991416;28;20254;-69
2023/12/13 15:00:31;;;;;;;1.17;0.95;;;7.40;99.90;;;;;;4991694;28;20572;-71
2023/12/13 15:02:59;;;;;;;1.45;1.35;;;7.40;99.90;;;;;;4991214;28;20219;-70
2023/12/13 15:05:27;;;;;;;1.90;1.30;;;7.40;99.90;;;;;;4991704;28;20282;-70
2023/12/13 15:07:54;;;;;;;2.05;1.20;;;7.40;99.90;;;;;;4991037;28;20214;-69
2023/12/13 15:10:21;;;;;;;0.70;0.60;;;7.40;99.90;;;;;;4983573;28;20203;-70
2023/12/13 15:12:47;;;;;;;0.70;0.70;;;7.30;99.90;;;;;;4991493;28;20204;-70
2023/12/13 15:15:15;;;;;;;2.75;0.88;;;7.20;99.90;;;;;;4991444;28;20274;-71
2023/12/13 15:17:41;;;;;;;1.17;0.90;;;7.20;99.90;;;;;;4990883;28;20203;-71
2023/12/13 15:20:09;;;;;;;1.55;0.85;;;7.10;99.90;;;;;;4990797;28;20210;-71
2023/12/13 15:22:37;;;;;;;1.00;0.80;;;7.10;99.90;;;;;;4991170;28;20243;-71
2023/12/13 15:25:04;;;;;;;1.20;1.00;;;7.00;99.90;;;;;;4991318;28;20298;-71
2023/12/13 15:27:31;;;;;;;0.95;0.85;;;7.10;99.90;;;;;;4990937;28;20215;-72
2023/12/13 15:29:58;;;;;;;7.80;1.35;;;7.10;99.90;;;;;;4990958;28;20200;-71
2023/12/13 15:32:25;;;;;;;1.10;0.90;;;7.10;99.90;;;;;;4990910;28;20254;-74
2023/12/13 15:34:52;;;;;;;1.30;1.00;;;7.10;99.90;;;;;;4991252;28;20211;-72
2023/12/13 15:37:18;;;;;;;3.60;1.35;;;7.00;99.90;;;;;;4989754;28;20294;-73
2023/12/13 15:39:46;;;;;;;0.80;0.70;;;7.00;99.90;;;;;;4990639;28;20219;-73
2023/12/13 15:42:13;;;;;;;1.02;0.93;;;7.00;99.90;;;;;;4991036;28;20245;-73
2023/12/13 15:44:40;;;;;;;1.85;1.10;;;7.00;99.90;;;;;;4991360;28;20588;-74
2023/12/13 15:47:07;;;;;;;0.90;0.90;;;7.00;99.90;;;;;;4991410;28;20227;-69
2023/12/13 15:49:34;;;;;;;1.10;0.82;;;7.00;99.90;;;;;;4990854;28;20211;-72
2023/12/13 15:52:03;;;;;;;2.25;1.05;;;7.00;99.90;;;;;;4991036;28;20593;-71
2023/12/13 15:54:30;;;;;;;1.00;0.90;;;7.00;99.90;;;;;;4991022;28;20586;-71
2023/12/13 15:57:00;;;;;;;1.40;1.20;;;6.90;99.90;;;;;;4990599;28;20622;-71
2023/12/13 15:59:27;;;;;;;6.55;1.70;;;7.00;99.90;;;;;;4991304;28;20211;-71
2023/12/13 16:01:54;;;;;;;1.38;1.17;;;7.00;99.90;;;;;;4991546;28;20231;-71
2023/12/13 16:04:21;;;;;;;1.50;1.40;;;7.00;99.90;;;;;;4982537;28;20719;-70
2023/12/13 16:06:47;;;;;;;1.38;1.27;;;7.00;99.90;;;;;;4991332;28;20254;-71
2023/12/13 16:09:14;;;;;;;1.65;1.10;;;7.00;99.90;;;;;;4990964;28;20214;-71
2023/12/13 16:11:41;;;;;;;1.20;1.10;;;7.00;99.90;;;;;;4990468;28;20234;-71
2023/12/13 16:14:09;;;;;;;1.55;1.08;;;7.00;99.90;;;;;;4990989;28;20221;-71
2023/12/13 16:16:36;;;;;;;4.83;1.20;;;7.00;99.90;;;;;;4990468;28;20904;-71
2023/12/13 16:19:03;;;;;;;1.10;0.90;;;6.90;99.90;;;;;;4988179;28;20860;-70
2023/12/13 16:21:31;;;;;;;1.05;0.80;;;6.90;99.90;;;;;;4990436;28;20231;-70
2023/12/13 16:23:58;;;;;;;1.20;1.00;;;7.00;99.90;;;;;;4989966;28;20764;-71
2023/12/13 16:26:25;;;;;;;0.90;0.70;;;6.90;99.90;;;;;;4990263;28;20592;-72
2023/12/13 16:28:52;;;;;;;1.10;0.93;;;6.90;99.90;;;;;;4990061;28;20211;-72
2023/12/13 16:31:20;;;;;;;1.35;1.25;;;6.90;99.90;;;;;;4990105;28;20235;-71
2023/12/13 16:33:46;;;;;;;1.50;0.90;;;6.90;99.90;;;;;;4988310;28;20858;-71
2023/12/13 16:36:13;;;;;;;1.80;1.42;;;6.80;99.90;;;;;;4988138;28;20230;-72
2023/12/13 16:38:40;;;;;;;1.52;1.20;;;6.90;99.90;;;;;;4988349;28;20214;-71
2023/12/13 16:41:06;;;;;;;1.35;1.17;;;6.80;99.90;;;;;;4989142;28;20606;-71
2023/12/13 16:43:33;;;;;;;1.10;1.00;;;6.80;99.90;;;;;;4989474;28;20219;-71
2023/12/13 16:46:01;;;;;;;0.98;0.88;;;6.70;99.90;;;;;;4989387;28;20305;-72
2023/12/13 16:48:29;;;;;;;0.98;0.90;;;6.70;99.90;;;;;;4989188;28;20212;-71
2023/12/13 16:50:56;;;;;;;1.40;1.08;;;6.60;99.90;;;;;;4989792;28;20227;-71
2023/12/13 16:53:23;;;;;;;1.35;0.90;;;6.60;99.90;;;;;;4989842;28;20292;-72
2023/12/13 16:55:49;;;;;;;0.80;0.80;;;6.60;99.90;;;;;;4989572;28;20218;-71
2023/12/13 16:58:16;;;;;;;1.33;0.80;;;6.50;99.90;;;;;;4987102;28;20218;-71
2023/12/13 17:00:43;;;;;;;5.88;0.95;;;6.50;99.90;;;;;;4989728;28;20277;-71
2023/12/13 17:03:10;;;;;;;1.35;0.80;;;6.40;99.90;;;;;;4989646;28;20231;-71
2023/12/13 17:05:39;;;;;;;1.10;0.75;;;6.40;99.90;;;;;;4989843;28;20210;-71
2023/12/13 17:08:05;;;;;;;0.93;0.82;;;6.40;99.90;;;;;;4989121;28;20203;-70